Details From CYUL - Montreal Pierre E Trudeau Intl
To CYVM - Qikiqtarjuaq
Flight Number -
Tags Generated
Created
Modified
Stats Distance 1,361 nm / 2,520 km
Max Altitude 0 ft / 0 m
Waypoints 2
Social Downloads 0
Likes 0
Share VATSIM

Download

Looking for another format? Having issues loading an existing format? Contact us
Advertisement - Login to hide

Notes

Generated

Route

CYUL CYVM

ID Type Via Altitude Latitude Longitude Leg Dist Tot Dist Heading (true) Name
O CYUL APT - 0 ft / 0 m 45.46250˚ -73.76500˚ - 0 nm - -
O CYVM APT - 0 ft / 0 m 67.54195˚ -64.03806˚ 1360 nm 1360 nm 10° / 18° -

Altitude Profile

Advertisement - Login to hide

Weather


0- 5 10 15 20 25 30 35+ Temperature / ° C

Clouds and Precipitation
Forecast for 2017-12-11 18:00 UTC. Updated 10 minutes ago

Ground ~20,000 ft ~40,000 ft Winds

CYUL

Details ICAO CYUL (YUL)
Name Montreal Pierre E Trudeau Intl
Region Canada
Timezone America/Montreal (UTC-5.0)
Stats Elevation 117 ft / 36 m (AMSL)
Location 45.467269° -73.744028°
Runways 3
Magnetic Variation 14.322° W

METAR

CYUL 111700Z VRB04KT 15SM VCSH FEW025 M10/M18 A3006 RMK CU1 SHSN E-S SLP182

Decode

TAF

TAF CYUL 111438Z 1115/1212 03005KT P6SM SCT030 FM111800 VRB03KT P6SM FEW240 FM120200 05010KT P6SM BKN120 FM120700 05013KT P6SM -SN OVC080 FM121000 04015KT 11/2SM -SN OVC020 RMK NXT FCST BY 111800Z

Decode

Departure Runways

ID Width Length Bearing (true) Bearing (mag) Surface Threshold Offset Overrun Length
06L 200 ft / 61 m 11,020 ft / 3,359 m 42.62° 56.94° Asphalt 0 ft / 0 m 0 ft / 0 m
06R 200 ft / 61 m 9,706 ft / 2,958 m 41.23° 55.55° Asphalt 0 ft / 0 m 0 ft / 0 m
10 200 ft / 61 m 6,831 ft / 2,082 m 87.45° 101.77° Asphalt 0 ft / 0 m 0 ft / 0 m
24L 200 ft / 61 m 9,706 ft / 2,958 m 221.25° 235.57° Asphalt 0 ft / 0 m 0 ft / 0 m
24R 200 ft / 61 m 11,020 ft / 3,359 m 222.64° 236.96° Asphalt 0 ft / 0 m 0 ft / 0 m
28 200 ft / 61 m 6,831 ft / 2,082 m 267.47° 281.79° Asphalt 0 ft / 0 m 0 ft / 0 m

CYVM

Details ICAO CYVM (YVM)
Name QIKIQTARJUAQ
Region Canada
Timezone Unknown (UTC+0.0)
Stats Elevation 21 ft / 6 m (AMSL)
Location 67.546236° -64.030706°
Runways 1
Magnetic Variation 32.152° W

METAR

CYVM 111700Z 00000KT 12SM IC FEW012 BKN039 M19/M20 A2929 RMK SC1SC7 SC TR SLP922

Decode

TAF

TAF CYVM 111238Z 1113/1201 VRB03KT P6SM BKN030 TEMPO 1113/1116 4SM -SN OVC020 FM111600 22008KT P6SM BKN050 TEMPO 1116/1201 4SM -SN BECMG 1116/1118 32010KT RMK FCST BASED ON AUTO OBS. NXT FCST BY 111900Z

Decode

Destination Runways

ID Width Length Bearing (true) Bearing (mag) Surface Threshold Offset Overrun Length
03T 100 ft / 30 m 3,741 ft / 1,140 m 33.20° 65.35° Gravel 0 ft / 0 m 0 ft / 0 m
21T 100 ft / 30 m 3,741 ft / 1,140 m 213.21° 245.36° Gravel 0 ft / 0 m 0 ft / 0 m